sensor_id;sensor_type;location;lat;lon;timestamp;temperature;humidity
5723;DHT22;2886;49.722;8.612;2023-08-30T00:00:40;15.10;99.90
5723;DHT22;2886;49.722;8.612;2023-08-30T00:03:07;15.10;99.90
5723;DHT22;2886;49.722;8.612;2023-08-30T00:05:32;15.10;99.90
5723;DHT22;2886;49.722;8.612;2023-08-30T00:07:58;15.10;99.90
5723;DHT22;2886;49.722;8.612;2023-08-30T00:10:23;15.10;99.90
5723;DHT22;2886;49.722;8.612;2023-08-30T00:12:49;15.10;99.90
5723;DHT22;2886;49.722;8.612;2023-08-30T00:15:15;15.00;99.90
5723;DHT22;2886;49.722;8.612;2023-08-30T00:17:44;15.10;99.90
5723;DHT22;2886;49.722;8.612;2023-08-30T00:20:19;15.10;99.90
5723;DHT22;2886;49.722;8.612;2023-08-30T00:22:45;15.10;99.90
5723;DHT22;2886;49.722;8.612;2023-08-30T00:25:10;15.00;99.90
5723;DHT22;2886;49.722;8.612;2023-08-30T00:27:36;15.10;99.90
5723;DHT22;2886;49.722;8.612;2023-08-30T00:30:02;15.10;99.90
5723;DHT22;2886;49.722;8.612;2023-08-30T00:32:29;15.10;99.90
5723;DHT22;2886;49.722;8.612;2023-08-30T00:34:54;15.10;99.90
5723;DHT22;2886;49.722;8.612;2023-08-30T00:37:20;15.10;99.90
5723;DHT22;2886;49.722;8.612;2023-08-30T00:39:45;15.10;99.90
5723;DHT22;2886;49.722;8.612;2023-08-30T00:42:11;15.10;99.90
5723;DHT22;2886;49.722;8.612;2023-08-30T00:44:37;15.10;99.90
5723;DHT22;2886;49.722;8.612;2023-08-30T00:47:02;15.10;99.90
5723;DHT22;2886;49.722;8.612;2023-08-30T00:49:31;15.20;99.90
5723;DHT22;2886;49.722;8.612;2023-08-30T00:52:02;15.20;99.90
5723;DHT22;2886;49.722;8.612;2023-08-30T00:54:29;15.20;99.90
5723;DHT22;2886;49.722;8.612;2023-08-30T00:56:55;15.20;99.90
5723;DHT22;2886;49.722;8.612;2023-08-30T00:59:22;15.20;99.90
5723;DHT22;2886;49.722;8.612;2023-08-30T01:01:48;15.20;99.90
5723;DHT22;2886;49.722;8.612;2023-08-30T01:04:14;15.20;99.90
5723;DHT22;2886;49.722;8.612;2023-08-30T01:06:40;15.20;99.90
5723;DHT22;2886;49.722;8.612;2023-08-30T01:09:07;15.20;99.90
5723;DHT22;2886;49.722;8.612;2023-08-30T01:16:32;15.20;99.90
5723;DHT22;2886;49.722;8.612;2023-08-30T01:18:59;15.20;99.90
5723;DHT22;2886;49.722;8.612;2023-08-30T01:21:48;15.20;99.90
5723;DHT22;2886;49.722;8.612;2023-08-30T01:24:32;15.20;99.90
5723;DHT22;2886;49.722;8.612;2023-08-30T01:27:11;15.20;99.90
5723;DHT22;2886;49.722;8.612;2023-08-30T01:29:42;15.20;99.90
5723;DHT22;2886;49.722;8.612;2023-08-30T01:32:09;15.20;99.90
5723;DHT22;2886;49.722;8.612;2023-08-30T01:34:36;15.20;99.90
5723;DHT22;2886;49.722;8.612;2023-08-30T01:37:04;15.20;99.90
5723;DHT22;2886;49.722;8.612;2023-08-30T01:39:32;15.20;99.90
5723;DHT22;2886;49.722;8.612;2023-08-30T01:41:57;15.20;99.90
5723;DHT22;2886;49.722;8.612;2023-08-30T01:44:28;15.20;99.90
5723;DHT22;2886;49.722;8.612;2023-08-30T01:46:54;15.20;99.90
5723;DHT22;2886;49.722;8.612;2023-08-30T01:49:20;15.20;99.90
5723;DHT22;2886;49.722;8.612;2023-08-30T01:51:47;15.20;99.90
5723;DHT22;2886;49.722;8.612;2023-08-30T01:54:17;15.30;99.90
5723;DHT22;2886;49.722;8.612;2023-08-30T01:56:44;15.20;99.90
5723;DHT22;2886;49.722;8.612;2023-08-30T01:59:11;15.20;99.90
5723;DHT22;2886;49.722;8.612;2023-08-30T02:01:36;15.20;99.90
5723;DHT22;2886;49.722;8.612;2023-08-30T02:04:02;15.30;99.90
5723;DHT22;2886;49.722;8.612;2023-08-30T02:06:34;15.20;99.90
5723;DHT22;2886;49.722;8.612;2023-08-30T02:09:14;15.20;99.90
5723;DHT22;2886;49.722;8.612;2023-08-30T02:11:44;15.20;99.90
5723;DHT22;2886;49.722;8.612;2023-08-30T02:14:12;15.10;99.90
5723;DHT22;2886;49.722;8.612;2023-08-30T02:16:42;15.10;99.90
5723;DHT22;2886;49.722;8.612;2023-08-30T02:19:08;15.10;99.90
5723;DHT22;2886;49.722;8.612;2023-08-30T02:21:34;15.20;99.90
5723;DHT22;2886;49.722;8.612;2023-08-30T02:23:59;15.20;99.90
5723;DHT22;2886;49.722;8.612;2023-08-30T02:26:25;15.20;99.90
5723;DHT22;2886;49.722;8.612;2023-08-30T02:28:51;15.20;99.90
5723;DHT22;2886;49.722;8.612;2023-08-30T02:31:16;15.10;99.90
5723;DHT22;2886;49.722;8.612;2023-08-30T02:33:42;15.10;99.90
5723;DHT22;2886;49.722;8.612;2023-08-30T02:36:08;15.20;99.90
5723;DHT22;2886;49.722;8.612;2023-08-30T02:38:33;15.20;99.90
5723;DHT22;2886;49.722;8.612;2023-08-30T02:40:59;15.10;99.90
5723;DHT22;2886;49.722;8.612;2023-08-30T02:43:25;15.20;99.90
5723;DHT22;2886;49.722;8.612;2023-08-30T02:45:50;15.10;99.90
5723;DHT22;2886;49.722;8.612;2023-08-30T02:48:17;15.10;99.90
5723;DHT22;2886;49.722;8.612;2023-08-30T02:50:43;15.10;99.90
5723;DHT22;2886;49.722;8.612;2023-08-30T02:53:09;15.10;99.90
5723;DHT22;2886;49.722;8.612;2023-08-30T02:55:38;15.10;99.90
5723;DHT22;2886;49.722;8.612;2023-08-30T02:58:03;15.10;99.90
5723;DHT22;2886;49.722;8.612;2023-08-30T03:00:29;15.10;99.90
5723;DHT22;2886;49.722;8.612;2023-08-30T03:02:54;15.10;99.90
5723;DHT22;2886;49.722;8.612;2023-08-30T03:05:20;15.10;99.90
5723;DHT22;2886;49.722;8.612;2023-08-30T03:07:46;15.10;99.90
5723;DHT22;2886;49.722;8.612;2023-08-30T03:10:12;15.10;99.90
5723;DHT22;2886;49.722;8.612;2023-08-30T03:12:37;15.10;99.90
5723;DHT22;2886;49.722;8.612;2023-08-30T03:15:03;15.10;99.90
5723;DHT22;2886;49.722;8.612;2023-08-30T03:17:30;15.10;99.90
5723;DHT22;2886;49.722;8.612;2023-08-30T03:19:55;15.10;99.90
5723;DHT22;2886;49.722;8.612;2023-08-30T03:22:21;15.10;99.90
5723;DHT22;2886;49.722;8.612;2023-08-30T03:24:47;15.10;99.90
5723;DHT22;2886;49.722;8.612;2023-08-30T03:27:15;15.20;99.90
5723;DHT22;2886;49.722;8.612;2023-08-30T03:29:40;15.20;99.90
5723;DHT22;2886;49.722;8.612;2023-08-30T03:32:06;15.20;99.90
5723;DHT22;2886;49.722;8.612;2023-08-30T03:34:31;15.20;99.90
5723;DHT22;2886;49.722;8.612;2023-08-30T03:36:57;15.20;99.90
5723;DHT22;2886;49.722;8.612;2023-08-30T03:39:23;15.20;99.90
5723;DHT22;2886;49.722;8.612;2023-08-30T03:41:50;15.20;99.90
5723;DHT22;2886;49.722;8.612;2023-08-30T03:44:15;15.20;99.90
5723;DHT22;2886;49.722;8.612;2023-08-30T03:46:44;15.20;99.90
5723;DHT22;2886;49.722;8.612;2023-08-30T03:49:09;15.20;99.90
5723;DHT22;2886;49.722;8.612;2023-08-30T03:51:35;15.20;99.90
5723;DHT22;2886;49.722;8.612;2023-08-30T03:54:01;15.20;99.90
5723;DHT22;2886;49.722;8.612;2023-08-30T03:56:26;15.20;99.90
5723;DHT22;2886;49.722;8.612;2023-08-30T03:58:52;15.10;99.90
5723;DHT22;2886;49.722;8.612;2023-08-30T04:01:18;15.10;99.90
5723;DHT22;2886;49.722;8.612;2023-08-30T04:03:44;15.10;99.90
5723;DHT22;2886;49.722;8.612;2023-08-30T04:06:09;15.10;99.90
5723;DHT22;2886;49.722;8.612;2023-08-30T04:08:35;15.10;99.90
5723;DHT22;2886;49.722;8.612;2023-08-30T04:11:02;15.00;99.90
5723;DHT22;2886;49.722;8.612;2023-08-30T04:13:27;15.10;99.90
5723;DHT22;2886;49.722;8.612;2023-08-30T04:15:53;15.00;99.90
5723;DHT22;2886;49.722;8.612;2023-08-30T04:18:18;15.00;99.90
5723;DHT22;2886;49.722;8.612;2023-08-30T04:20:45;15.00;99.90
5723;DHT22;2886;49.722;8.612;2023-08-30T04:23:11;15.00;99.90
5723;DHT22;2886;49.722;8.612;2023-08-30T04:25:37;15.00;99.90
5723;DHT22;2886;49.722;8.612;2023-08-30T04:28:03;15.00;99.90
5723;DHT22;2886;49.722;8.612;2023-08-30T04:30:28;15.00;99.90
5723;DHT22;2886;49.722;8.612;2023-08-30T04:32:54;15.00;99.90
5723;DHT22;2886;49.722;8.612;2023-08-30T04:35:20;15.00;99.90
5723;DHT22;2886;49.722;8.612;2023-08-30T04:37:45;15.10;99.90
5723;DHT22;2886;49.722;8.612;2023-08-30T04:40:11;15.00;99.90
5723;DHT22;2886;49.722;8.612;2023-08-30T04:42:37;15.10;99.90
5723;DHT22;2886;49.722;8.612;2023-08-30T04:45:05;15.10;99.90
5723;DHT22;2886;49.722;8.612;2023-08-30T04:47:32;15.10;99.90
5723;DHT22;2886;49.722;8.612;2023-08-30T04:49:58;15.10;99.90
5723;DHT22;2886;49.722;8.612;2023-08-30T04:52:24;15.20;99.90
5723;DHT22;2886;49.722;8.612;2023-08-30T04:54:49;15.20;99.90
5723;DHT22;2886;49.722;8.612;2023-08-30T04:57:16;15.20;99.90
5723;DHT22;2886;49.722;8.612;2023-08-30T04:59:42;15.20;99.90
5723;DHT22;2886;49.722;8.612;2023-08-30T05:02:08;15.20;99.90
5723;DHT22;2886;49.722;8.612;2023-08-30T05:04:34;15.20;99.90
5723;DHT22;2886;49.722;8.612;2023-08-30T05:07:00;15.20;99.90
5723;DHT22;2886;49.722;8.612;2023-08-30T05:09:25;15.20;99.90
5723;DHT22;2886;49.722;8.612;2023-08-30T05:11:52;15.30;99.90
5723;DHT22;2886;49.722;8.612;2023-08-30T05:14:17;15.30;99.90
5723;DHT22;2886;49.722;8.612;2023-08-30T05:16:43;15.30;99.90
5723;DHT22;2886;49.722;8.612;2023-08-30T05:19:11;15.40;99.90
5723;DHT22;2886;49.722;8.612;2023-08-30T05:21:37;15.40;99.90
5723;DHT22;2886;49.722;8.612;2023-08-30T05:24:03;15.40;99.90
5723;DHT22;2886;49.722;8.612;2023-08-30T05:26:28;15.50;99.90
5723;DHT22;2886;49.722;8.612;2023-08-30T05:28:54;15.50;99.90
5723;DHT22;2886;49.722;8.612;2023-08-30T05:31:22;15.50;99.90
5723;DHT22;2886;49.722;8.612;2023-08-30T05:33:48;15.50;99.90
5723;DHT22;2886;49.722;8.612;2023-08-30T05:36:13;15.60;99.90
5723;DHT22;2886;49.722;8.612;2023-08-30T05:38:39;15.60;99.90
5723;DHT22;2886;49.722;8.612;2023-08-30T05:41:05;15.60;99.90
5723;DHT22;2886;49.722;8.612;2023-08-30T05:43:31;15.60;99.90
5723;DHT22;2886;49.722;8.612;2023-08-30T05:45:57;15.70;99.90
5723;DHT22;2886;49.722;8.612;2023-08-30T05:48:27;15.70;99.90
5723;DHT22;2886;49.722;8.612;2023-08-30T05:50:54;15.70;99.90
5723;DHT22;2886;49.722;8.612;2023-08-30T05:53:19;15.80;99.90
5723;DHT22;2886;49.722;8.612;2023-08-30T05:55:45;15.80;99.90
5723;DHT22;2886;49.722;8.612;2023-08-30T05:58:10;15.90;99.90
5723;DHT22;2886;49.722;8.612;2023-08-30T06:00:36;15.90;99.90
5723;DHT22;2886;49.722;8.612;2023-08-30T06:03:05;16.00;99.90
5723;DHT22;2886;49.722;8.612;2023-08-30T06:05:30;16.10;99.90
5723;DHT22;2886;49.722;8.612;2023-08-30T06:07:56;16.10;99.90
5723;DHT22;2886;49.722;8.612;2023-08-30T06:10:23;16.10;99.90
5723;DHT22;2886;49.722;8.612;2023-08-30T06:12:48;16.20;99.90
5723;DHT22;2886;49.722;8.612;2023-08-30T06:15:14;16.20;99.90
5723;DHT22;2886;49.722;8.612;2023-08-30T06:17:40;16.20;99.90
5723;DHT22;2886;49.722;8.612;2023-08-30T06:20:06;16.30;99.90
5723;DHT22;2886;49.722;8.612;2023-08-30T06:22:32;16.30;99.90
5723;DHT22;2886;49.722;8.612;2023-08-30T06:24:57;16.30;99.90
5723;DHT22;2886;49.722;8.612;2023-08-30T06:27:23;16.40;99.90
5723;DHT22;2886;49.722;8.612;2023-08-30T06:29:49;16.40;99.90
5723;DHT22;2886;49.722;8.612;2023-08-30T06:32:16;16.50;99.90
5723;DHT22;2886;49.722;8.612;2023-08-30T06:34:42;16.50;99.90
5723;DHT22;2886;49.722;8.612;2023-08-30T06:37:08;16.60;99.90
5723;DHT22;2886;49.722;8.612;2023-08-30T06:39:34;16.70;99.90
5723;DHT22;2886;49.722;8.612;2023-08-30T06:42:01;16.70;99.90
5723;DHT22;2886;49.722;8.612;2023-08-30T06:44:26;16.70;99.90
5723;DHT22;2886;49.722;8.612;2023-08-30T06:46:52;16.70;99.90
5723;DHT22;2886;49.722;8.612;2023-08-30T06:49:18;16.70;99.90
5723;DHT22;2886;49.722;8.612;2023-08-30T06:51:43;16.70;99.90
5723;DHT22;2886;49.722;8.612;2023-08-30T06:54:09;16.70;99.90
5723;DHT22;2886;49.722;8.612;2023-08-30T06:56:34;16.80;99.90
5723;DHT22;2886;49.722;8.612;2023-08-30T06:59:00;16.90;99.90
5723;DHT22;2886;49.722;8.612;2023-08-30T07:01:25;17.00;99.90
5723;DHT22;2886;49.722;8.612;2023-08-30T07:03:51;17.00;99.90
5723;DHT22;2886;49.722;8.612;2023-08-30T07:06:17;17.10;99.90
5723;DHT22;2886;49.722;8.612;2023-08-30T07:08:42;17.10;99.90
5723;DHT22;2886;49.722;8.612;2023-08-30T07:11:08;17.30;99.90
5723;DHT22;2886;49.722;8.612;2023-08-30T07:13:33;17.30;99.90
5723;DHT22;2886;49.722;8.612;2023-08-30T07:15:59;17.30;99.90
5723;DHT22;2886;49.722;8.612;2023-08-30T07:18:25;17.40;99.90
5723;DHT22;2886;49.722;8.612;2023-08-30T07:20:50;17.50;99.90
5723;DHT22;2886;49.722;8.612;2023-08-30T07:23:16;17.60;99.90
5723;DHT22;2886;49.722;8.612;2023-08-30T07:25:41;17.60;99.90
5723;DHT22;2886;49.722;8.612;2023-08-30T07:28:08;17.70;99.90
5723;DHT22;2886;49.722;8.612;2023-08-30T07:30:34;17.70;99.90
5723;DHT22;2886;49.722;8.612;2023-08-30T07:33:01;17.80;99.90
5723;DHT22;2886;49.722;8.612;2023-08-30T07:35:26;17.90;99.90
5723;DHT22;2886;49.722;8.612;2023-08-30T07:37:52;18.10;99.90
5723;DHT22;2886;49.722;8.612;2023-08-30T07:40:18;18.20;99.90
5723;DHT22;2886;49.722;8.612;2023-08-30T07:42:43;18.30;99.90
5723;DHT22;2886;49.722;8.612;2023-08-30T07:45:09;18.40;99.90
5723;DHT22;2886;49.722;8.612;2023-08-30T07:47:35;18.50;99.90
5723;DHT22;2886;49.722;8.612;2023-08-30T07:50:00;18.60;99.90
5723;DHT22;2886;49.722;8.612;2023-08-30T07:52:26;18.70;99.90
5723;DHT22;2886;49.722;8.612;2023-08-30T07:54:51;18.90;99.90
5723;DHT22;2886;49.722;8.612;2023-08-30T07:57:20;19.10;99.90
5723;DHT22;2886;49.722;8.612;2023-08-30T07:59:46;19.20;99.90
5723;DHT22;2886;49.722;8.612;2023-08-30T08:02:11;19.30;99.90
5723;DHT22;2886;49.722;8.612;2023-08-30T08:04:37;19.40;99.90
5723;DHT22;2886;49.722;8.612;2023-08-30T08:07:03;19.50;99.90
5723;DHT22;2886;49.722;8.612;2023-08-30T08:09:30;19.50;99.90
5723;DHT22;2886;49.722;8.612;2023-08-30T08:11:56;19.60;99.90
5723;DHT22;2886;49.722;8.612;2023-08-30T08:14:22;19.60;99.90
5723;DHT22;2886;49.722;8.612;2023-08-30T08:16:49;19.80;99.90
5723;DHT22;2886;49.722;8.612;2023-08-30T08:19:14;19.90;99.90
5723;DHT22;2886;49.722;8.612;2023-08-30T08:21:40;20.00;99.90
5723;DHT22;2886;49.722;8.612;2023-08-30T08:24:06;20.10;99.90
5723;DHT22;2886;49.722;8.612;2023-08-30T08:26:32;20.10;99.90
5723;DHT22;2886;49.722;8.612;2023-08-30T08:28:58;20.00;99.90
5723;DHT22;2886;49.722;8.612;2023-08-30T08:31:23;20.10;99.90
5723;DHT22;2886;49.722;8.612;2023-08-30T08:34:06;20.10;99.90
5723;DHT22;2886;49.722;8.612;2023-08-30T08:36:32;20.30;99.90
5723;DHT22;2886;49.722;8.612;2023-08-30T08:38:58;20.50;99.90
5723;DHT22;2886;49.722;8.612;2023-08-30T08:41:27;20.50;99.70
5723;DHT22;2886;49.722;8.612;2023-08-30T08:43:56;20.50;99.10
5723;DHT22;2886;49.722;8.612;2023-08-30T08:46:23;20.50;99.30
5723;DHT22;2886;49.722;8.612;2023-08-30T08:48:50;20.40;99.50
5723;DHT22;2886;49.722;8.612;2023-08-30T08:51:16;20.40;99.90
5723;DHT22;2886;49.722;8.612;2023-08-30T08:53:42;20.60;99.90
5723;DHT22;2886;49.722;8.612;2023-08-30T08:56:09;20.60;98.90
5723;DHT22;2886;49.722;8.612;2023-08-30T08:58:36;20.60;99.30
5723;DHT22;2886;49.722;8.612;2023-08-30T09:01:03;20.70;99.10
5723;DHT22;2886;49.722;8.612;2023-08-30T09:03:30;21.00;98.90
5723;DHT22;2886;49.722;8.612;2023-08-30T09:05:55;21.00;97.70
5723;DHT22;2886;49.722;8.612;2023-08-30T09:08:21;21.00;98.10
5723;DHT22;2886;49.722;8.612;2023-08-30T09:10:47;21.10;97.40
5723;DHT22;2886;49.722;8.612;2023-08-30T09:13:16;21.20;97.70
5723;DHT22;2886;49.722;8.612;2023-08-30T09:15:41;21.40;97.60
5723;DHT22;2886;49.722;8.612;2023-08-30T09:18:16;21.30;95.60
5723;DHT22;2886;49.722;8.612;2023-08-30T09:20:42;21.30;96.00
5723;DHT22;2886;49.722;8.612;2023-08-30T09:23:21;21.40;95.80
5723;DHT22;2886;49.722;8.612;2023-08-30T09:25:54;21.40;95.70
5723;DHT22;2886;49.722;8.612;2023-08-30T09:28:20;21.40;95.80
5723;DHT22;2886;49.722;8.612;2023-08-30T09:30:50;21.60;95.90
5723;DHT22;2886;49.722;8.612;2023-08-30T09:33:20;21.70;94.40
5723;DHT22;2886;49.722;8.612;2023-08-30T09:35:45;21.80;95.80
5723;DHT22;2886;49.722;8.612;2023-08-30T09:38:19;21.90;95.80
5723;DHT22;2886;49.722;8.612;2023-08-30T09:40:45;22.00;93.90
5723;DHT22;2886;49.722;8.612;2023-08-30T09:43:14;22.10;93.60
5723;DHT22;2886;49.722;8.612;2023-08-30T09:45:43;22.10;93.80
5723;DHT22;2886;49.722;8.612;2023-08-30T09:48:09;22.20;92.30
5723;DHT22;2886;49.722;8.612;2023-08-30T09:50:35;22.30;91.90
5723;DHT22;2886;49.722;8.612;2023-08-30T09:53:06;22.40;91.50
5723;DHT22;2886;49.722;8.612;2023-08-30T09:55:33;22.30;91.40
5723;DHT22;2886;49.722;8.612;2023-08-30T09:58:01;22.20;91.80
5723;DHT22;2886;49.722;8.612;2023-08-30T10:00:28;22.20;91.40
5723;DHT22;2886;49.722;8.612;2023-08-30T10:02:54;22.30;90.30
5723;DHT22;2886;49.722;8.612;2023-08-30T10:05:20;22.30;85.80
5723;DHT22;2886;49.722;8.612;2023-08-30T10:07:47;22.40;88.90
5723;DHT22;2886;49.722;8.612;2023-08-30T10:10:13;22.40;88.30
5723;DHT22;2886;49.722;8.612;2023-08-30T10:12:39;22.30;89.20
5723;DHT22;2886;49.722;8.612;2023-08-30T10:15:06;22.50;90.20
5723;DHT22;2886;49.722;8.612;2023-08-30T10:17:33;22.90;83.80
5723;DHT22;2886;49.722;8.612;2023-08-30T10:20:04;23.00;76.70
5723;DHT22;2886;49.722;8.612;2023-08-30T10:22:32;23.00;76.90
5723;DHT22;2886;49.722;8.612;2023-08-30T10:25:01;22.90;80.40
5723;DHT22;2886;49.722;8.612;2023-08-30T10:27:31;23.00;80.50
5723;DHT22;2886;49.722;8.612;2023-08-30T10:29:59;23.20;79.50
5723;DHT22;2886;49.722;8.612;2023-08-30T10:32:26;23.10;77.20
5723;DHT22;2886;49.722;8.612;2023-08-30T10:34:52;22.90;78.00
5723;DHT22;2886;49.722;8.612;2023-08-30T10:37:26;23.10;79.80
5723;DHT22;2886;49.722;8.612;2023-08-30T10:39:50;23.30;71.60
5723;DHT22;2886;49.722;8.612;2023-08-30T10:42:17;23.10;73.60
5723;DHT22;2886;49.722;8.612;2023-08-30T10:44:47;23.30;71.80
5723;DHT22;2886;49.722;8.612;2023-08-30T10:47:26;23.60;73.60
5723;DHT22;2886;49.722;8.612;2023-08-30T10:49:54;23.80;69.20
5723;DHT22;2886;49.722;8.612;2023-08-30T10:52:23;23.90;72.20
5723;DHT22;2886;49.722;8.612;2023-08-30T10:54:49;23.80;70.80
5723;DHT22;2886;49.722;8.612;2023-08-30T10:57:20;23.60;73.50
5723;DHT22;2886;49.722;8.612;2023-08-30T11:02:32;23.60;71.60
5723;DHT22;2886;49.722;8.612;2023-08-30T11:04:59;23.60;68.10
5723;DHT22;2886;49.722;8.612;2023-08-30T11:07:25;23.40;67.90
5723;DHT22;2886;49.722;8.612;2023-08-30T11:09:54;23.00;70.40
5723;DHT22;2886;49.722;8.612;2023-08-30T11:12:20;22.70;74.00
5723;DHT22;2886;49.722;8.612;2023-08-30T11:14:49;22.50;75.90
5723;DHT22;2886;49.722;8.612;2023-08-30T11:17:19;22.30;79.90
5723;DHT22;2886;49.722;8.612;2023-08-30T11:19:45;22.40;80.40
5723;DHT22;2886;49.722;8.612;2023-08-30T11:22:12;22.50;81.00
5723;DHT22;2886;49.722;8.612;2023-08-30T11:24:39;22.50;80.80
5723;DHT22;2886;49.722;8.612;2023-08-30T11:27:05;22.60;80.20
5723;DHT22;2886;49.722;8.612;2023-08-30T11:29:31;22.90;75.30
5723;DHT22;2886;49.722;8.612;2023-08-30T11:31:57;23.10;72.30
5723;DHT22;2886;49.722;8.612;2023-08-30T11:34:23;23.20;70.30
5723;DHT22;2886;49.722;8.612;2023-08-30T11:36:50;23.20;74.20
5723;DHT22;2886;49.722;8.612;2023-08-30T11:39:16;23.20;72.50
5723;DHT22;2886;49.722;8.612;2023-08-30T11:41:43;23.50;65.70
5723;DHT22;2886;49.722;8.612;2023-08-30T11:44:10;23.70;60.50
5723;DHT22;2886;49.722;8.612;2023-08-30T11:46:36;24.00;57.80
5723;DHT22;2886;49.722;8.612;2023-08-30T11:49:01;24.30;56.80
5723;DHT22;2886;49.722;8.612;2023-08-30T11:51:28;24.40;57.80
5723;DHT22;2886;49.722;8.612;2023-08-30T11:53:55;24.60;55.50
5723;DHT22;2886;49.722;8.612;2023-08-30T11:56:22;24.60;53.80
5723;DHT22;2886;49.722;8.612;2023-08-30T11:58:48;24.60;52.60
5723;DHT22;2886;49.722;8.612;2023-08-30T12:01:14;24.60;54.20
5723;DHT22;2886;49.722;8.612;2023-08-30T12:03:39;24.70;52.20
5723;DHT22;2886;49.722;8.612;2023-08-30T12:06:11;24.60;53.30
5723;DHT22;2886;49.722;8.612;2023-08-30T12:08:40;24.30;54.60
5723;DHT22;2886;49.722;8.612;2023-08-30T12:11:06;24.20;55.20
5723;DHT22;2886;49.722;8.612;2023-08-30T12:13:42;24.10;55.70
5723;DHT22;2886;49.722;8.612;2023-08-30T12:16:07;24.00;53.70
5723;DHT22;2886;49.722;8.612;2023-08-30T12:18:33;23.90;54.30
5723;DHT22;2886;49.722;8.612;2023-08-30T12:21:03;24.10;55.30
5723;DHT22;2886;49.722;8.612;2023-08-30T12:23:31;24.00;55.80
5723;DHT22;2886;49.722;8.612;2023-08-30T12:26:02;24.00;56.10
5723;DHT22;2886;49.722;8.612;2023-08-30T12:28:36;23.90;56.10
5723;DHT22;2886;49.722;8.612;2023-08-30T12:31:02;23.60;55.80
5723;DHT22;2886;49.722;8.612;2023-08-30T12:33:33;23.30;55.50
5723;DHT22;2886;49.722;8.612;2023-08-30T12:35:59;22.80;58.40
5723;DHT22;2886;49.722;8.612;2023-08-30T12:38:25;22.80;58.90
5723;DHT22;2886;49.722;8.612;2023-08-30T12:40:54;22.80;59.30
5723;DHT22;2886;49.722;8.612;2023-08-30T12:43:21;22.80;61.90
5723;DHT22;2886;49.722;8.612;2023-08-30T12:45:47;23.20;58.60
5723;DHT22;2886;49.722;8.612;2023-08-30T12:48:14;23.60;57.10
5723;DHT22;2886;49.722;8.612;2023-08-30T12:50:42;23.80;55.30
5723;DHT22;2886;49.722;8.612;2023-08-30T12:53:08;24.00;55.60
5723;DHT22;2886;49.722;8.612;2023-08-30T12:55:34;24.10;56.10
5723;DHT22;2886;49.722;8.612;2023-08-30T12:58:00;24.20;52.50
5723;DHT22;2886;49.722;8.612;2023-08-30T13:00:26;24.10;53.10
5723;DHT22;2886;49.722;8.612;2023-08-30T13:02:52;24.20;54.30
5723;DHT22;2886;49.722;8.612;2023-08-30T13:05:18;24.30;52.90
5723;DHT22;2886;49.722;8.612;2023-08-30T13:07:44;24.20;53.00
5723;DHT22;2886;49.722;8.612;2023-08-30T13:10:10;24.20;52.60
5723;DHT22;2886;49.722;8.612;2023-08-30T13:12:36;24.00;52.30
5723;DHT22;2886;49.722;8.612;2023-08-30T13:15:05;23.80;54.10
5723;DHT22;2886;49.722;8.612;2023-08-30T13:17:31;23.70;53.10
5723;DHT22;2886;49.722;8.612;2023-08-30T13:19:56;23.60;53.90
5723;DHT22;2886;49.722;8.612;2023-08-30T13:22:26;23.70;52.10
5723;DHT22;2886;49.722;8.612;2023-08-30T13:24:51;23.60;51.30
5723;DHT22;2886;49.722;8.612;2023-08-30T13:27:18;23.80;50.60
5723;DHT22;2886;49.722;8.612;2023-08-30T13:29:44;24.00;48.60
5723;DHT22;2886;49.722;8.612;2023-08-30T13:32:09;24.20;50.80
5723;DHT22;2886;49.722;8.612;2023-08-30T13:34:35;24.20;47.90
5723;DHT22;2886;49.722;8.612;2023-08-30T13:37:01;24.10;47.30
5723;DHT22;2886;49.722;8.612;2023-08-30T13:39:26;23.80;49.60
5723;DHT22;2886;49.722;8.612;2023-08-30T13:41:52;23.80;49.80
5723;DHT22;2886;49.722;8.612;2023-08-30T13:44:17;23.60;47.30
5723;DHT22;2886;49.722;8.612;2023-08-30T13:46:44;23.30;49.20
5723;DHT22;2886;49.722;8.612;2023-08-30T13:49:10;23.30;48.80
5723;DHT22;2886;49.722;8.612;2023-08-30T13:51:36;23.40;49.40
5723;DHT22;2886;49.722;8.612;2023-08-30T13:54:02;23.60;48.60
5723;DHT22;2886;49.722;8.612;2023-08-30T13:56:28;23.70;47.20
5723;DHT22;2886;49.722;8.612;2023-08-30T13:58:55;23.70;47.10
5723;DHT22;2886;49.722;8.612;2023-08-30T14:01:21;23.70;48.40
5723;DHT22;2886;49.722;8.612;2023-08-30T14:03:47;23.80;48.10
5723;DHT22;2886;49.722;8.612;2023-08-30T14:06:13;23.80;44.90
5723;DHT22;2886;49.722;8.612;2023-08-30T14:08:38;23.70;45.30
5723;DHT22;2886;49.722;8.612;2023-08-30T14:11:04;23.60;46.30
5723;DHT22;2886;49.722;8.612;2023-08-30T14:13:30;23.60;45.40
5723;DHT22;2886;49.722;8.612;2023-08-30T14:15:59;23.70;45.60
5723;DHT22;2886;49.722;8.612;2023-08-30T14:18:25;23.70;45.20
5723;DHT22;2886;49.722;8.612;2023-08-30T14:20:55;23.60;45.20
5723;DHT22;2886;49.722;8.612;2023-08-30T14:23:23;23.60;46.30
5723;DHT22;2886;49.722;8.612;2023-08-30T14:28:22;23.50;46.80
5723;DHT22;2886;49.722;8.612;2023-08-30T14:30:47;23.30;46.80
5723;DHT22;2886;49.722;8.612;2023-08-30T14:33:13;23.20;48.80
5723;DHT22;2886;49.722;8.612;2023-08-30T14:35:42;23.20;49.30
5723;DHT22;2886;49.722;8.612;2023-08-30T14:38:10;23.30;48.50
5723;DHT22;2886;49.722;8.612;2023-08-30T14:40:36;23.60;47.40
5723;DHT22;2886;49.722;8.612;2023-08-30T14:43:05;23.80;46.40
5723;DHT22;2886;49.722;8.612;2023-08-30T14:45:31;24.10;45.50
5723;DHT22;2886;49.722;8.612;2023-08-30T14:47:57;24.30;44.00
5723;DHT22;2886;49.722;8.612;2023-08-30T14:50:23;24.40;44.50
5723;DHT22;2886;49.722;8.612;2023-08-30T14:52:48;24.40;44.60
5723;DHT22;2886;49.722;8.612;2023-08-30T14:55:15;24.30;46.20
5723;DHT22;2886;49.722;8.612;2023-08-30T14:57:41;24.30;44.50
5723;DHT22;2886;49.722;8.612;2023-08-30T15:00:07;24.20;45.60
5723;DHT22;2886;49.722;8.612;2023-08-30T15:02:33;24.20;46.80
5723;DHT22;2886;49.722;8.612;2023-08-30T15:04:59;24.30;47.20
5723;DHT22;2886;49.722;8.612;2023-08-30T15:07:25;24.10;46.20
5723;DHT22;2886;49.722;8.612;2023-08-30T15:09:50;24.00;46.90
5723;DHT22;2886;49.722;8.612;2023-08-30T15:12:16;24.00;46.20
5723;DHT22;2886;49.722;8.612;2023-08-30T15:14:42;23.90;46.90
5723;DHT22;2886;49.722;8.612;2023-08-30T15:17:09;23.90;46.80
5723;DHT22;2886;49.722;8.612;2023-08-30T15:19:35;23.80;47.10
5723;DHT22;2886;49.722;8.612;2023-08-30T15:22:02;23.60;46.80
5723;DHT22;2886;49.722;8.612;2023-08-30T15:24:27;23.60;45.90
5723;DHT22;2886;49.722;8.612;2023-08-30T15:26:54;23.50;47.00
5723;DHT22;2886;49.722;8.612;2023-08-30T15:29:19;23.30;47.40
5723;DHT22;2886;49.722;8.612;2023-08-30T15:31:45;23.30;47.60
5723;DHT22;2886;49.722;8.612;2023-08-30T15:34:17;23.40;47.30
5723;DHT22;2886;49.722;8.612;2023-08-30T15:36:43;23.50;48.20
5723;DHT22;2886;49.722;8.612;2023-08-30T15:39:09;23.60;47.80
5723;DHT22;2886;49.722;8.612;2023-08-30T15:41:36;23.80;47.60
5723;DHT22;2886;49.722;8.612;2023-08-30T15:44:02;23.90;47.40
5723;DHT22;2886;49.722;8.612;2023-08-30T15:46:29;23.70;46.40
5723;DHT22;2886;49.722;8.612;2023-08-30T15:48:54;23.50;46.80
5723;DHT22;2886;49.722;8.612;2023-08-30T15:51:20;23.30;47.50
5723;DHT22;2886;49.722;8.612;2023-08-30T15:53:46;23.20;49.10
5723;DHT22;2886;49.722;8.612;2023-08-30T15:56:12;23.10;48.60
5723;DHT22;2886;49.722;8.612;2023-08-30T15:58:38;22.90;48.80
5723;DHT22;2886;49.722;8.612;2023-08-30T16:01:04;22.90;49.30
5723;DHT22;2886;49.722;8.612;2023-08-30T16:03:30;22.90;49.80
5723;DHT22;2886;49.722;8.612;2023-08-30T16:05:56;22.80;48.90
5723;DHT22;2886;49.722;8.612;2023-08-30T16:08:21;22.90;49.10